Time;durP1;ratioP1;P1;durP2;ratioP2;P2;SDS_P1;SDS_P2;PMS_P1;PMS_P2;Temp;Humidity;BMP_temperature;BMP_pressure;BME280_temperature;BME280_humidity;BME280_pressure;Samples;Min_cycle;Max_cycle;Signal;HPM_P1;HPM_P2
2023/09/18 00:00:57;;;;;;;11.70;8.73;;;;;;;;;;5055649;28;20204;-60
2023/09/18 00:03:38;;;;;;;10.95;7.65;;;;;;;;;;5056024;28;20188;-61
2023/09/18 00:06:06;;;;;;;12.05;7.78;;;;;;;;;;5055599;28;20236;-60
2023/09/18 00:08:33;;;;;;;10.20;7.50;;;;;;;;;;5055926;28;20266;-61
2023/09/18 00:11:00;;;;;;;10.68;7.68;;;;;;;;;;5055530;28;20566;-61
2023/09/18 00:13:27;;;;;;;11.93;7.72;;;;;;;;;;5055583;28;20200;-61
2023/09/18 00:15:55;;;;;;;12.52;7.93;;;;;;;;;;5055255;28;20757;-61
2023/09/18 00:18:22;;;;;;;10.85;7.68;;;;;;;;;;5055776;28;20311;-61
2023/09/18 00:20:51;;;;;;;11.73;8.13;;;;;;;;;;5055250;28;20203;-61
2023/09/18 00:23:19;;;;;;;11.43;7.80;;;;;;;;;;5054076;28;20235;-61
2023/09/18 00:25:46;;;;;;;10.95;7.65;;;;;;;;;;5055048;28;20705;-61
2023/09/18 00:28:13;;;;;;;10.25;7.55;;;;;;;;;;5055475;28;20200;-61
2023/09/18 00:30:48;;;;;;;13.98;7.22;;;;;;;;;;5055272;28;20657;-61
2023/09/18 00:33:16;;;;;;;11.20;7.28;;;;;;;;;;5055050;28;20253;-61
2023/09/18 00:35:48;;;;;;;10.15;7.32;;;;;;;;;;5055310;28;20207;-61
2023/09/18 00:38:15;;;;;;;15.10;7.60;;;;;;;;;;5055123;28;20214;-61
2023/09/18 00:40:43;;;;;;;8.73;6.85;;;;;;;;;;5053983;28;20250;-61
2023/09/18 00:43:11;;;;;;;15.15;8.23;;;;;;;;;;5055138;28;20569;-60
2023/09/18 00:45:41;;;;;;;12.05;8.13;;;;;;;;;;5054691;28;20254;-61
2023/09/18 00:48:09;;;;;;;12.98;8.30;;;;;;;;;;5053649;28;20662;-60
2023/09/18 00:50:37;;;;;;;13.20;8.02;;;;;;;;;;5054986;28;20261;-61
2023/09/18 00:53:04;;;;;;;10.52;6.85;;;;;;;;;;5036802;28;20204;-61
2023/09/18 00:55:32;;;;;;;9.15;6.70;;;;;;;;;;5054799;28;20208;-61
2023/09/18 00:57:59;;;;;;;13.35;7.82;;;;;;;;;;5054836;28;20200;-61
2023/09/18 01:00:26;;;;;;;8.48;6.90;;;;;;;;;;5053601;28;20200;-61
2023/09/18 01:02:53;;;;;;;8.60;6.60;;;;;;;;;;5053349;28;20206;-62
2023/09/18 01:05:21;;;;;;;11.20;6.82;;;;;;;;;;5054363;28;20200;-61
2023/09/18 01:07:48;;;;;;;12.73;7.45;;;;;;;;;;5054274;28;20739;-61
2023/09/18 01:10:16;;;;;;;11.02;7.13;;;;;;;;;;5054562;28;20212;-61
2023/09/18 01:13:26;;;;;;;10.40;6.63;;;;;;;;;;5053588;28;20206;-61
2023/09/18 01:15:59;;;;;;;8.13;6.47;;;;;;;;;;4992713;28;20205;-61
2023/09/18 01:18:26;;;;;;;13.20;6.25;;;;;;;;;;4960559;28;20234;-61
2023/09/18 01:20:54;;;;;;;12.02;6.68;;;;;;;;;;4993013;28;20206;-61
2023/09/18 01:23:21;;;;;;;10.93;6.90;;;;;;;;;;4992768;28;20287;-61
2023/09/18 01:25:49;;;;;;;10.35;6.50;;;;;;;;;;4992639;28;20671;-61
2023/09/18 01:28:16;;;;;;;10.45;7.32;;;;;;;;;;4976306;28;20209;-60
2023/09/18 01:30:44;;;;;;;9.10;6.88;;;;;;;;;;4992645;28;20202;-62
2023/09/18 01:33:11;;;;;;;9.13;6.07;;;;;;;;;;4992600;28;20202;-62
2023/09/18 01:35:39;;;;;;;10.65;6.57;;;;;;;;;;4976452;28;20210;-61
2023/09/18 01:38:10;;;;;;;10.60;6.68;;;;;;;;;;4976334;28;20253;-62
2023/09/18 01:40:38;;;;;;;10.50;6.70;;;;;;;;;;4992540;28;20584;-62
2023/09/18 01:43:05;;;;;;;8.63;6.40;;;;;;;;;;4976386;28;20205;-61
2023/09/18 01:45:32;;;;;;;8.25;6.07;;;;;;;;;;4993972;28;20265;-62
2023/09/18 01:47:59;;;;;;;8.93;6.70;;;;;;;;;;5053893;28;20228;-62
2023/09/18 01:50:27;;;;;;;8.75;6.60;;;;;;;;;;5036070;28;20211;-61
2023/09/18 01:52:54;;;;;;;9.93;7.18;;;;;;;;;;5052587;28;20210;-62
2023/09/18 01:55:21;;;;;;;8.18;5.88;;;;;;;;;;5052428;28;20219;-61
2023/09/18 01:57:48;;;;;;;8.52;6.63;;;;;;;;;;5052699;28;20212;-61
2023/09/18 02:00:16;;;;;;;9.68;6.97;;;;;;;;;;5052543;28;20265;-62
2023/09/18 02:02:44;;;;;;;5.93;4.60;;;;;;;;;;5053743;28;20196;-61
2023/09/18 02:05:23;;;;;;;7.68;5.03;;;;;;;;;;5052883;28;20227;-61
2023/09/18 02:07:51;;;;;;;7.13;4.85;;;;;;;;;;5052187;28;20223;-61
2023/09/18 02:10:19;;;;;;;6.15;4.63;;;;;;;;;;5053353;28;20657;-61
2023/09/18 02:12:46;;;;;;;7.60;4.68;;;;;;;;;;5053790;28;20231;-61
2023/09/18 02:15:16;;;;;;;6.45;5.13;;;;;;;;;;5053567;28;20208;-60
2023/09/18 02:17:44;;;;;;;7.20;5.30;;;;;;;;;;5053957;28;20231;-61
2023/09/18 02:20:13;;;;;;;8.45;6.00;;;;;;;;;;5052115;28;20565;-62
2023/09/18 02:22:41;;;;;;;9.75;6.80;;;;;;;;;;5053445;28;20277;-60
2023/09/18 02:25:08;;;;;;;10.27;7.30;;;;;;;;;;5052071;28;20203;-62
2023/09/18 02:27:35;;;;;;;9.70;6.85;;;;;;;;;;5053069;28;20597;-61
2023/09/18 02:30:03;;;;;;;10.82;7.18;;;;;;;;;;5052057;28;20665;-62
2023/09/18 02:32:30;;;;;;;10.80;7.10;;;;;;;;;;5053419;28;20250;-61
2023/09/18 02:34:58;;;;;;;11.70;6.88;;;;;;;;;;5053036;28;20207;-61
2023/09/18 02:37:25;;;;;;;10.48;6.50;;;;;;;;;;5051955;28;20743;-61
2023/09/18 02:39:52;;;;;;;12.57;6.70;;;;;;;;;;5051874;28;20200;-61
2023/09/18 02:42:19;;;;;;;8.90;6.65;;;;;;;;;;5051879;28;20714;-61
2023/09/18 02:44:47;;;;;;;10.15;6.18;;;;;;;;;;5053029;28;20668;-61
2023/09/18 02:47:14;;;;;;;13.38;7.75;;;;;;;;;;5052074;28;20227;-61
2023/09/18 02:49:41;;;;;;;10.63;6.88;;;;;;;;;;5051826;28;20603;-61
2023/09/18 02:52:08;;;;;;;10.02;6.72;;;;;;;;;;5051711;28;20196;-60
2023/09/18 02:54:36;;;;;;;9.18;6.15;;;;;;;;;;5051759;28;20203;-61
2023/09/18 02:57:03;;;;;;;9.23;6.45;;;;;;;;;;5051699;28;20207;-61
2023/09/18 02:59:32;;;;;;;8.95;5.65;;;;;;;;;;5052079;28;20254;-62
2023/09/18 03:01:59;;;;;;;7.07;5.15;;;;;;;;;;5051650;28;20684;-61
2023/09/18 03:04:26;;;;;;;7.43;5.20;;;;;;;;;;5052804;28;20219;-61
2023/09/18 03:06:54;;;;;;;8.15;5.65;;;;;;;;;;5051877;28;20233;-62
2023/09/18 03:09:21;;;;;;;9.15;5.60;;;;;;;;;;5052816;28;20719;-61
2023/09/18 03:11:49;;;;;;;8.07;5.45;;;;;;;;;;5052167;28;20200;-61
2023/09/18 03:14:16;;;;;;;8.10;5.82;;;;;;;;;;5051845;28;20208;-61
2023/09/18 03:16:44;;;;;;;8.65;6.38;;;;;;;;;;5052682;28;20199;-60
2023/09/18 03:19:12;;;;;;;9.13;6.43;;;;;;;;;;5055359;28;20215;-62
2023/09/18 03:21:40;;;;;;;8.35;5.93;;;;;;;;;;5055428;28;20653;-61
2023/09/18 03:24:08;;;;;;;10.75;6.80;;;;;;;;;;5038972;28;20204;-61
2023/09/18 03:26:35;;;;;;;9.82;6.60;;;;;;;;;;5054845;28;20710;-62
2023/09/18 03:29:03;;;;;;;10.80;7.25;;;;;;;;;;5054978;28;20727;-62
2023/09/18 03:43:43;;;;;;;10.95;6.97;;;;;;;;;;5069431;28;21104;-46
2023/09/18 03:46:10;;;;;;;10.13;6.50;;;;;;;;;;5051458;28;20238;-46
2023/09/18 03:48:43;;;;;;;9.02;6.60;;;;;;;;;;5047201;28;20203;-47
2023/09/18 03:51:15;;;;;;;9.43;6.78;;;;;;;;;;5066805;28;20231;-47
2023/09/18 03:53:43;;;;;;;11.82;6.63;;;;;;;;;;5064554;28;20594;-46
2023/09/18 03:56:11;;;;;;;8.60;6.43;;;;;;;;;;5052070;28;20199;-47
2023/09/18 03:58:38;;;;;;;9.35;6.45;;;;;;;;;;5067395;28;20200;-46
2023/09/18 04:01:05;;;;;;;10.23;7.03;;;;;;;;;;5062194;28;20207;-46
2023/09/18 04:03:32;;;;;;;10.10;6.90;;;;;;;;;;5051361;28;20670;-47
2023/09/18 04:06:00;;;;;;;9.60;6.18;;;;;;;;;;5049696;28;20219;-46
2023/09/18 04:08:29;;;;;;;10.57;7.07;;;;;;;;;;5033284;28;20579;-46
2023/09/18 04:10:59;;;;;;;10.30;6.35;;;;;;;;;;5051467;28;20242;-46
2023/09/18 04:13:27;;;;;;;9.10;6.40;;;;;;;;;;5019066;28;20224;-46
2023/09/18 04:15:56;;;;;;;8.18;5.95;;;;;;;;;;5060884;28;20236;-46
2023/09/18 04:18:24;;;;;;;9.90;6.22;;;;;;;;;;5051112;28;20284;-45
2023/09/18 04:20:53;;;;;;;8.23;6.10;;;;;;;;;;5051311;28;20228;-47
2023/09/18 04:23:25;;;;;;;12.07;6.38;;;;;;;;;;5051510;28;20737;-46
2023/09/18 04:25:54;;;;;;;9.93;6.75;;;;;;;;;;5051063;28;20318;-46
2023/09/18 04:28:22;;;;;;;10.75;7.40;;;;;;;;;;5051235;28;20231;-46
2023/09/18 04:30:49;;;;;;;14.18;7.32;;;;;;;;;;5050495;28;20600;-45
2023/09/18 04:33:17;;;;;;;12.70;7.22;;;;;;;;;;5051230;28;20263;-47
2023/09/18 04:35:45;;;;;;;10.45;7.32;;;;;;;;;;5051085;28;20230;-46
2023/09/18 04:38:15;;;;;;;9.75;7.00;;;;;;;;;;5051045;28;20603;-46
2023/09/18 04:40:43;;;;;;;8.60;6.40;;;;;;;;;;5051053;28;20239;-48
2023/09/18 04:43:11;;;;;;;17.92;6.50;;;;;;;;;;5040174;28;20321;-47
2023/09/18 04:45:39;;;;;;;11.55;6.70;;;;;;;;;;5054768;28;20278;-46
2023/09/18 04:48:08;;;;;;;12.77;7.35;;;;;;;;;;5037840;28;20232;-48
2023/09/18 04:50:36;;;;;;;12.07;6.85;;;;;;;;;;5054187;28;20593;-46
2023/09/18 04:53:03;;;;;;;10.70;6.90;;;;;;;;;;5054950;28;20228;-46
2023/09/18 04:55:32;;;;;;;9.63;6.43;;;;;;;;;;5037190;28;20224;-48
2023/09/18 04:57:59;;;;;;;12.20;7.28;;;;;;;;;;5055333;28;20228;-46
2023/09/18 05:00:28;;;;;;;11.63;7.40;;;;;;;;;;5037139;28;20236;-47
2023/09/18 05:02:55;;;;;;;11.50;7.88;;;;;;;;;;5055342;28;20770;-47
2023/09/18 05:05:23;;;;;;;14.68;8.30;;;;;;;;;;5055410;28;20235;-46
2023/09/18 05:07:50;;;;;;;12.73;8.00;;;;;;;;;;5037548;28;20220;-45
2023/09/18 05:10:18;;;;;;;10.57;7.20;;;;;;;;;;5042301;28;20282;-47
2023/09/18 05:12:45;;;;;;;12.35;7.60;;;;;;;;;;5035210;28;20702;-47
2023/09/18 05:15:12;;;;;;;11.27;7.43;;;;;;;;;;5051297;28;20253;-45
2023/09/18 05:17:42;;;;;;;12.65;7.78;;;;;;;;;;5055518;28;20736;-47
2023/09/18 05:20:15;;;;;;;11.95;7.57;;;;;;;;;;5054842;28;20559;-47
2023/09/18 05:22:43;;;;;;;14.02;7.75;;;;;;;;;;5054718;28;20250;-47
2023/09/18 05:25:11;;;;;;;13.48;8.25;;;;;;;;;;5054387;28;20519;-46
2023/09/18 05:27:44;;;;;;;12.52;8.35;;;;;;;;;;5037621;28;20227;-46
2023/09/18 05:30:21;;;;;;;9.85;7.80;;;;;;;;;;5054841;28;20203;-46
2023/09/18 05:32:49;;;;;;;13.82;8.50;;;;;;;;;;5055267;28;20196;-46
2023/09/18 05:35:16;;;;;;;12.27;8.40;;;;;;;;;;5054987;28;20211;-45
2023/09/18 05:37:44;;;;;;;13.75;8.98;;;;;;;;;;5055388;28;20215;-46
2023/09/18 05:40:12;;;;;;;13.35;9.57;;;;;;;;;;5055278;28;20219;-46
2023/09/18 05:42:45;;;;;;;16.45;9.27;;;;;;;;;;5055201;28;20319;-46
2023/09/18 05:45:14;;;;;;;19.40;9.40;;;;;;;;;;5055064;28;20200;-46
2023/09/18 05:47:42;;;;;;;12.80;8.48;;;;;;;;;;5055009;28;20275;-46
2023/09/18 05:50:14;;;;;;;16.42;9.10;;;;;;;;;;5054843;28;20250;-47
2023/09/18 05:52:43;;;;;;;15.05;10.00;;;;;;;;;;5054821;28;20231;-46
2023/09/18 05:55:10;;;;;;;13.77;9.65;;;;;;;;;;5054190;28;20200;-46
2023/09/18 05:57:37;;;;;;;13.85;9.55;;;;;;;;;;5054682;28;20572;-46
2023/09/18 06:00:08;;;;;;;13.32;9.20;;;;;;;;;;5049741;28;20204;-46
2023/09/18 06:02:39;;;;;;;13.50;8.80;;;;;;;;;;5017629;28;20691;-45
2023/09/18 06:05:11;;;;;;;14.13;8.60;;;;;;;;;;5035096;28;20254;-46
2023/09/18 06:07:39;;;;;;;13.23;8.98;;;;;;;;;;5034912;28;20211;-47
2023/09/18 06:10:07;;;;;;;13.50;9.00;;;;;;;;;;5017159;28;20197;-46
2023/09/18 06:12:34;;;;;;;12.18;8.32;;;;;;;;;;5034515;28;20324;-45
2023/09/18 06:15:01;;;;;;;15.18;9.10;;;;;;;;;;5034450;28;20212;-46
2023/09/18 06:17:28;;;;;;;12.82;8.60;;;;;;;;;;5040797;28;20286;-46
2023/09/18 06:19:56;;;;;;;12.10;8.75;;;;;;;;;;5036943;28;20204;-45
2023/09/18 06:22:23;;;;;;;14.13;9.05;;;;;;;;;;5054544;28;20291;-47
2023/09/18 06:24:50;;;;;;;13.52;8.50;;;;;;;;;;5054224;28;20200;-46
2023/09/18 06:27:18;;;;;;;12.55;8.13;;;;;;;;;;5054136;28;20204;-46
2023/09/18 06:29:46;;;;;;;14.43;7.72;;;;;;;;;;5053993;28;20675;-46
2023/09/18 06:32:13;;;;;;;11.23;7.60;;;;;;;;;;5054410;28;20240;-46
2023/09/18 06:34:43;;;;;;;12.40;8.60;;;;;;;;;;5054067;28;20199;-46
2023/09/18 06:37:12;;;;;;;13.95;8.30;;;;;;;;;;5054384;28;20191;-46
2023/09/18 06:39:40;;;;;;;10.88;8.00;;;;;;;;;;5053829;28;20200;-47
2023/09/18 06:42:09;;;;;;;14.13;8.82;;;;;;;;;;5053849;28;20231;-45
2023/09/18 06:44:37;;;;;;;12.32;8.27;;;;;;;;;;5053951;28;20266;-47
2023/09/18 06:47:04;;;;;;;13.88;8.23;;;;;;;;;;5054005;28;20203;-46
2023/09/18 06:49:32;;;;;;;16.38;9.10;;;;;;;;;;5053678;28;20207;-45
2023/09/18 06:51:59;;;;;;;18.33;10.20;;;;;;;;;;5053954;28;20358;-47
2023/09/18 06:54:26;;;;;;;15.18;9.13;;;;;;;;;;5053652;28;20199;-46
2023/09/18 06:56:53;;;;;;;12.35;8.73;;;;;;;;;;5054225;28;20211;-45
2023/09/18 06:59:21;;;;;;;14.45;8.23;;;;;;;;;;5053878;28;20273;-47
2023/09/18 07:01:48;;;;;;;11.65;8.35;;;;;;;;;;5053554;28;20269;-46
2023/09/18 07:04:15;;;;;;;12.25;8.25;;;;;;;;;;5036255;28;20211;-46
2023/09/18 07:06:42;;;;;;;10.07;7.43;;;;;;;;;;5053336;28;20232;-45
2023/09/18 07:09:12;;;;;;;11.20;8.02;;;;;;;;;;5053367;28;20200;-45
2023/09/18 07:11:39;;;;;;;9.20;7.32;;;;;;;;;;5053376;28;20219;-45
2023/09/18 07:14:07;;;;;;;13.07;7.85;;;;;;;;;;5053391;28;20200;-45
2023/09/18 07:16:35;;;;;;;23.20;16.58;;;;;;;;;;5053369;28;20679;-45
2023/09/18 07:19:04;;;;;;;11.63;8.50;;;;;;;;;;5053694;28;20207;-45
2023/09/18 07:21:31;;;;;;;11.35;7.53;;;;;;;;;;5053342;28;20204;-46
2023/09/18 07:23:59;;;;;;;14.55;9.35;;;;;;;;;;5053155;28;20734;-46
2023/09/18 07:26:26;;;;;;;14.07;7.63;;;;;;;;;;5053295;28;20204;-46
2023/09/18 07:28:53;;;;;;;20.38;15.05;;;;;;;;;;5053229;28;20655;-45
2023/09/18 07:31:21;;;;;;;10.55;7.45;;;;;;;;;;5053286;28;20219;-47
2023/09/18 07:33:48;;;;;;;10.55;7.25;;;;;;;;;;5053254;28;20210;-45
2023/09/18 07:36:15;;;;;;;9.52;6.85;;;;;;;;;;5053158;28;20211;-46
2023/09/18 07:38:43;;;;;;;11.98;6.95;;;;;;;;;;5053381;28;20212;-46
2023/09/18 07:41:10;;;;;;;8.65;6.72;;;;;;;;;;5053036;28;20692;-46
2023/09/18 07:43:39;;;;;;;11.88;8.30;;;;;;;;;;5052897;28;20297;-47
2023/09/18 07:46:06;;;;;;;9.40;6.80;;;;;;;;;;5053222;28;20196;-46
2023/09/18 07:48:34;;;;;;;9.63;6.97;;;;;;;;;;5053103;28;20203;-47
2023/09/18 07:51:02;;;;;;;10.50;7.65;;;;;;;;;;5052891;28;20196;-47
2023/09/18 07:53:29;;;;;;;10.85;7.32;;;;;;;;;;5053301;28;20238;-46
2023/09/18 07:55:58;;;;;;;11.13;7.10;;;;;;;;;;5052986;28;20207;-47
2023/09/18 07:58:27;;;;;;;10.40;6.85;;;;;;;;;;5053101;28;20204;-46
2023/09/18 08:00:57;;;;;;;11.35;7.13;;;;;;;;;;5052792;28;20224;-47
2023/09/18 08:03:28;;;;;;;11.60;8.25;;;;;;;;;;5052926;28;20211;-46
2023/09/18 08:05:56;;;;;;;12.38;8.23;;;;;;;;;;5053298;28;20280;-46
2023/09/18 08:08:23;;;;;;;11.98;7.50;;;;;;;;;;5053137;28;20200;-46
2023/09/18 08:10:51;;;;;;;9.15;6.32;;;;;;;;;;5053176;28;20203;-46
2023/09/18 08:13:19;;;;;;;10.27;7.00;;;;;;;;;;5053017;28;20246;-47
2023/09/18 08:15:47;;;;;;;10.40;6.97;;;;;;;;;;5052666;28;20291;-45
2023/09/18 08:18:14;;;;;;;10.43;7.10;;;;;;;;;;5055615;28;20234;-46
2023/09/18 08:20:42;;;;;;;12.77;9.25;;;;;;;;;;5056822;28;20242;-47
2023/09/18 08:23:10;;;;;;;10.88;6.65;;;;;;;;;;5056689;28;20266;-46
2023/09/18 08:25:38;;;;;;;10.60;7.47;;;;;;;;;;5056525;28;20196;-46
2023/09/18 08:28:06;;;;;;;9.93;7.03;;;;;;;;;;5056335;28;20200;-46
2023/09/18 08:30:36;;;;;;;9.77;7.45;;;;;;;;;;5056632;28;20194;-47
2023/09/18 08:33:04;;;;;;;11.88;9.15;;;;;;;;;;5056405;28;20232;-46
2023/09/18 08:35:32;;;;;;;13.80;8.65;;;;;;;;;;5056238;28;20200;-46
2023/09/18 08:38:00;;;;;;;13.25;7.00;;;;;;;;;;5056402;28;20200;-46
2023/09/18 08:40:27;;;;;;;14.18;7.60;;;;;;;;;;5056104;28;20200;-45
2023/09/18 08:42:55;;;;;;;9.15;6.65;;;;;;;;;;5056106;28;20239;-46
2023/09/18 08:45:27;;;;;;;10.48;7.57;;;;;;;;;;5056030;28;20211;-46
2023/09/18 08:47:55;;;;;;;10.57;7.63;;;;;;;;;;5056504;28;20266;-46
2023/09/18 08:50:23;;;;;;;13.77;7.22;;;;;;;;;;5055969;28;20643;-46
2023/09/18 08:52:50;;;;;;;13.27;7.85;;;;;;;;;;5038639;28;20232;-46
2023/09/18 08:55:18;;;;;;;10.80;7.75;;;;;;;;;;5055890;28;20235;-46
2023/09/18 08:57:46;;;;;;;13.77;7.78;;;;;;;;;;5038496;28;20200;-47
2023/09/18 09:00:16;;;;;;;9.05;7.35;;;;;;;;;;5056057;28;20207;-47
2023/09/18 09:02:44;;;;;;;13.15;7.63;;;;;;;;;;5056225;28;20208;-46
2023/09/18 09:05:12;;;;;;;10.48;7.07;;;;;;;;;;5055818;28;20205;-47
2023/09/18 09:07:40;;;;;;;12.57;8.13;;;;;;;;;;5056058;28;20208;-46
2023/09/18 09:10:07;;;;;;;10.23;7.13;;;;;;;;;;5055824;28;20629;-46
2023/09/18 09:12:48;;;;;;;9.10;6.95;;;;;;;;;;5055530;28;20632;-46
2023/09/18 09:15:16;;;;;;;12.10;7.25;;;;;;;;;;5055846;28;20200;-47
2023/09/18 09:17:46;;;;;;;10.88;7.68;;;;;;;;;;5055619;28;20223;-46
2023/09/18 09:20:15;;;;;;;10.82;6.82;;;;;;;;;;5055462;28;20196;-47
2023/09/18 09:22:42;;;;;;;11.00;7.13;;;;;;;;;;5055405;28;20204;-46
2023/09/18 09:25:28;;;;;;;13.13;7.13;;;;;;;;;;5055275;28;20690;-47
2023/09/18 09:27:55;;;;;;;10.48;7.25;;;;;;;;;;5055841;28;20184;-46
2023/09/18 09:30:24;;;;;;;13.05;8.07;;;;;;;;;;5055617;28;20535;-48
2023/09/18 09:32:53;;;;;;;10.85;7.22;;;;;;;;;;5055064;28;20224;-46
2023/09/18 09:35:22;;;;;;;8.95;6.97;;;;;;;;;;5055602;28;20237;-46
2023/09/18 09:37:51;;;;;;;11.48;6.90;;;;;;;;;;5037889;28;20204;-48
2023/09/18 09:40:19;;;;;;;11.82;7.38;;;;;;;;;;5037566;28;20200;-47
2023/09/18 09:42:47;;;;;;;15.05;7.50;;;;;;;;;;5037375;28;20594;-46
2023/09/18 09:45:18;;;;;;;10.95;6.65;;;;;;;;;;5037447;28;20263;-46
2023/09/18 09:47:45;;;;;;;13.18;8.55;;;;;;;;;;5054987;28;20204;-47
2023/09/18 09:50:16;;;;;;;9.70;6.90;;;;;;;;;;5037595;28;20216;-46
2023/09/18 09:52:44;;;;;;;8.63;6.78;;;;;;;;;;5054688;28;20231;-46
2023/09/18 09:55:32;;;;;;;11.95;8.75;;;;;;;;;;5054817;28;20660;-47
2023/09/18 09:58:02;;;;;;;10.32;6.80;;;;;;;;;;5055043;28;20188;-47
2023/09/18 10:00:51;;;;;;;10.02;6.22;;;;;;;;;;5055024;28;20200;-47
2023/09/18 10:03:20;;;;;;;12.75;7.03;;;;;;;;;;5037324;28;20253;-47
2023/09/18 10:05:53;;;;;;;13.50;6.47;;;;;;;;;;5054834;28;20562;-48
2023/09/18 10:08:26;;;;;;;11.77;6.70;;;;;;;;;;5054846;28;20199;-46
2023/09/18 10:10:59;;;;;;;9.57;6.82;;;;;;;;;;5037508;28;20275;-46
2023/09/18 10:13:31;;;;;;;11.80;7.55;;;;;;;;;;5054371;28;20692;-46
2023/09/18 10:16:02;;;;;;;7.72;6.00;;;;;;;;;;5054466;28;20215;-47
2023/09/18 10:18:42;;;;;;;10.70;6.88;;;;;;;;;;5037660;28;20184;-46
2023/09/18 10:21:15;;;;;;;8.55;6.13;;;;;;;;;;5037025;28;20562;-46
2023/09/18 10:24:04;;;;;;;9.27;6.65;;;;;;;;;;5054528;28;20204;-47
2023/09/18 10:26:33;;;;;;;10.48;7.85;;;;;;;;;;5054382;28;20666;-46
2023/09/18 10:29:03;;;;;;;11.13;7.35;;;;;;;;;;5036724;28;20274;-46
2023/09/18 10:31:34;;;;;;;11.38;6.03;;;;;;;;;;5054732;28;20322;-46
2023/09/18 10:34:02;;;;;;;7.18;6.03;;;;;;;;;;5054560;28;20614;-47
2023/09/18 10:36:30;;;;;;;9.50;6.07;;;;;;;;;;5054554;28;20223;-46
2023/09/18 10:39:00;;;;;;;13.50;6.68;;;;;;;;;;5037333;28;20204;-46
2023/09/18 10:41:28;;;;;;;9.88;6.43;;;;;;;;;;5053239;28;20660;-46
2023/09/18 10:43:57;;;;;;;9.52;6.47;;;;;;;;;;5054069;28;20207;-46
2023/09/18 10:46:25;;;;;;;11.85;7.40;;;;;;;;;;5054184;28;20204;-47
2023/09/18 10:48:54;;;;;;;8.73;7.03;;;;;;;;;;5054006;28;20208;-47
2023/09/18 10:51:22;;;;;;;10.70;6.30;;;;;;;;;;5054031;28;20560;-46
2023/09/18 10:53:50;;;;;;;11.57;7.82;;;;;;;;;;5036382;28;20232;-46
2023/09/18 10:56:17;;;;;;;12.55;8.00;;;;;;;;;;5053595;28;20196;-46
2023/09/18 10:58:44;;;;;;;16.63;8.50;;;;;;;;;;5053433;28;20196;-46
2023/09/18 11:01:12;;;;;;;9.38;6.32;;;;;;;;;;5053569;28;20684;-47
2023/09/18 11:03:41;;;;;;;10.77;7.45;;;;;;;;;;5053640;28;20224;-46
2023/09/18 11:06:12;;;;;;;7.97;5.88;;;;;;;;;;5053578;28;20672;-46
2023/09/18 11:08:47;;;;;;;8.63;6.00;;;;;;;;;;5053632;28;20262;-46
2023/09/18 11:11:19;;;;;;;8.55;6.60;;;;;;;;;;5053760;28;20199;-47
2023/09/18 11:13:53;;;;;;;9.23;6.35;;;;;;;;;;5053682;28;20231;-46
2023/09/18 11:16:26;;;;;;;9.57;7.13;;;;;;;;;;5053516;28;20637;-46
2023/09/18 11:19:05;;;;;;;10.25;6.78;;;;;;;;;;5053792;28;20550;-46
2023/09/18 11:21:33;;;;;;;10.60;6.43;;;;;;;;;;5053665;28;20204;-46
2023/09/18 11:24:11;;;;;;;11.77;6.97;;;;;;;;;;5053763;28;20216;-46
2023/09/18 11:26:42;;;;;;;8.35;6.20;;;;;;;;;;5036224;28;20204;-46
2023/09/18 11:29:12;;;;;;;11.18;5.63;;;;;;;;;;5053234;28;20211;-46
2023/09/18 11:31:53;;;;;;;6.22;5.13;;;;;;;;;;5053225;28;20219;-47
2023/09/18 11:34:26;;;;;;;7.22;5.13;;;;;;;;;;5053562;28;20211;-46
2023/09/18 11:36:54;;;;;;;9.13;5.10;;;;;;;;;;5053205;28;20249;-47
2023/09/18 11:39:36;;;;;;;7.18;4.97;;;;;;;;;;5053348;28;20200;-46
2023/09/18 11:42:10;;;;;;;6.68;4.63;;;;;;;;;;5052915;28;20261;-46
2023/09/18 11:44:41;;;;;;;11.52;5.65;;;;;;;;;;5053432;28;20211;-46
2023/09/18 11:47:17;;;;;;;6.63;5.13;;;;;;;;;;5053274;28;20210;-46
2023/09/18 11:49:54;;;;;;;8.18;4.68;;;;;;;;;;5053014;28;20524;-46
2023/09/18 11:52:23;;;;;;;7.72;5.45;;;;;;;;;;5054144;28;20249;-47
2023/09/18 11:54:51;;;;;;;9.05;5.07;;;;;;;;;;5057147;28;20555;-48
2023/09/18 11:57:19;;;;;;;11.75;5.95;;;;;;;;;;5057305;28;20204;-47
2023/09/18 11:59:47;;;;;;;8.73;5.78;;;;;;;;;;5056952;28;20196;-46
2023/09/18 12:02:27;;;;;;;9.73;5.60;;;;;;;;;;5057176;28;20206;-46
2023/09/18 12:04:56;;;;;;;6.85;5.18;;;;;;;;;;5056968;28;20286;-47
2023/09/18 12:07:24;;;;;;;6.60;4.50;;;;;;;;;;5057175;28;20208;-47
2023/09/18 12:09:54;;;;;;;9.05;5.28;;;;;;;;;;5039524;28;20204;-46
2023/09/18 12:12:21;;;;;;;9.13;5.53;;;;;;;;;;5056813;28;20307;-46
2023/09/18 12:14:49;;;;;;;6.38;4.75;;;;;;;;;;5056679;28;20688;-46
2023/09/18 12:17:16;;;;;;;7.57;5.20;;;;;;;;;;5056617;28;20285;-48
2023/09/18 12:19:51;;;;;;;11.27;5.20;;;;;;;;;;5056575;28;20246;-46
2023/09/18 12:22:26;;;;;;;12.75;5.53;;;;;;;;;;5052878;28;20552;-47
2023/09/18 12:25:11;;;;;;;10.00;5.68;;;;;;;;;;5050901;28;20206;-46
2023/09/18 12:27:42;;;;;;;9.70;5.90;;;;;;;;;;5050947;28;20615;-47
2023/09/18 12:30:11;;;;;;;7.07;5.50;;;;;;;;;;5044477;28;20224;-48
2023/09/18 12:32:39;;;;;;;7.28;5.78;;;;;;;;;;5038125;28;20248;-46
2023/09/18 12:35:07;;;;;;;9.05;6.03;;;;;;;;;;5055598;28;20596;-48
2023/09/18 12:37:40;;;;;;;9.50;5.72;;;;;;;;;;5055160;28;20216;-46
2023/09/18 12:40:26;;;;;;;8.45;6.15;;;;;;;;;;5055378;28;20774;-47
2023/09/18 12:42:56;;;;;;;10.18;6.93;;;;;;;;;;5054711;28;20593;-47
2023/09/18 12:45:27;;;;;;;21.58;11.80;;;;;;;;;;5038029;28;20570;-46
2023/09/18 12:47:56;;;;;;;12.13;7.55;;;;;;;;;;5054829;28;20216;-49
2023/09/18 12:50:25;;;;;;;9.10;6.10;;;;;;;;;;5055114;28;20219;-47
2023/09/18 12:52:52;;;;;;;9.88;6.65;;;;;;;;;;5055025;28;20235;-47
2023/09/18 12:55:26;;;;;;;11.52;6.43;;;;;;;;;;5055379;28;20220;-47
2023/09/18 12:57:54;;;;;;;10.93;6.63;;;;;;;;;;5054853;28;20230;-47
2023/09/18 13:00:22;;;;;;;10.30;7.15;;;;;;;;;;5054945;28;20232;-47
2023/09/18 13:02:55;;;;;;;13.82;6.65;;;;;;;;;;5054569;28;20232;-46
2023/09/18 13:05:32;;;;;;;8.20;6.20;;;;;;;;;;5054951;28;20231;-47
2023/09/18 13:08:04;;;;;;;17.05;6.47;;;;;;;;;;5054941;28;20247;-48
2023/09/18 13:10:50;;;;;;;10.63;6.07;;;;;;;;;;5054165;28;20216;-48
2023/09/18 13:13:18;;;;;;;9.60;5.70;;;;;;;;;;5052810;28;20220;-47
2023/09/18 13:15:47;;;;;;;12.93;5.45;;;;;;;;;;5053088;28;20220;-48
2023/09/18 13:18:16;;;;;;;9.70;6.13;;;;;;;;;;5036803;28;20224;-48
2023/09/18 13:20:44;;;;;;;11.95;6.05;;;;;;;;;;5054566;28;20239;-46
2023/09/18 13:23:11;;;;;;;8.02;5.88;;;;;;;;;;5054998;28;20220;-46
2023/09/18 13:25:42;;;;;;;10.25;6.22;;;;;;;;;;5036789;28;20231;-46
2023/09/18 13:28:10;;;;;;;12.65;5.80;;;;;;;;;;5054542;28;20223;-46
2023/09/18 13:30:41;;;;;;;6.97;5.60;;;;;;;;;;5054705;28;20277;-47
2023/09/18 13:33:15;;;;;;;14.35;5.72;;;;;;;;;;5054851;28;20282;-47
2023/09/18 13:35:45;;;;;;;8.13;5.47;;;;;;;;;;5053723;28;20220;-47
2023/09/18 13:38:13;;;;;;;11.02;6.07;;;;;;;;;;5037227;28;20231;-47
2023/09/18 13:40:41;;;;;;;7.30;5.60;;;;;;;;;;5054684;28;20584;-48
2023/09/18 13:43:09;;;;;;;7.45;5.53;;;;;;;;;;5053634;28;20236;-47
2023/09/18 13:45:37;;;;;;;8.48;5.95;;;;;;;;;;5051436;28;20231;-48
2023/09/18 13:48:05;;;;;;;9.23;5.68;;;;;;;;;;5054222;28;20224;-47
2023/09/18 13:50:34;;;;;;;9.57;5.85;;;;;;;;;;5054124;28;20677;-47
2023/09/18 13:53:03;;;;;;;7.35;5.85;;;;;;;;;;5054582;28;20289;-47
2023/09/18 13:55:32;;;;;;;11.20;5.78;;;;;;;;;;5054473;28;20224;-46
2023/09/18 13:57:59;;;;;;;10.10;5.70;;;;;;;;;;5053809;28;20235;-47
2023/09/18 14:00:26;;;;;;;6.90;5.28;;;;;;;;;;5054396;28;20236;-46
2023/09/18 14:02:53;;;;;;;7.97;4.97;;;;;;;;;;5054210;28;20731;-46
2023/09/18 14:05:21;;;;;;;10.05;5.47;;;;;;;;;;5054374;28;20331;-47
2023/09/18 14:07:49;;;;;;;8.65;5.95;;;;;;;;;;5054131;28;20323;-46
2023/09/18 14:10:18;;;;;;;7.22;4.57;;;;;;;;;;5054275;28;20228;-47
2023/09/18 14:12:45;;;;;;;7.93;5.60;;;;;;;;;;5053705;28;20224;-47
2023/09/18 14:15:12;;;;;;;9.35;5.45;;;;;;;;;;5052905;28;20285;-47
2023/09/18 14:17:39;;;;;;;8.18;5.57;;;;;;;;;;5053795;28;20315;-47
2023/09/18 14:20:07;;;;;;;7.22;5.05;;;;;;;;;;5053392;28;20216;-46
2023/09/18 14:22:35;;;;;;;7.65;5.40;;;;;;;;;;5053392;28;20236;-47
2023/09/18 14:25:05;;;;;;;8.38;5.45;;;;;;;;;;5050791;28;20719;-47
2023/09/18 14:27:34;;;;;;;6.40;4.80;;;;;;;;;;5053034;28;20231;-46
2023/09/18 14:30:06;;;;;;;10.32;4.88;;;;;;;;;;5052942;28;20231;-47
2023/09/18 14:32:36;;;;;;;10.18;5.35;;;;;;;;;;5053232;28;20651;-46
2023/09/18 14:35:07;;;;;;;6.45;4.93;;;;;;;;;;5050697;28;20282;-46
2023/09/18 14:37:36;;;;;;;8.77;5.32;;;;;;;;;;5053968;28;20248;-46
2023/09/18 14:40:04;;;;;;;9.63;5.18;;;;;;;;;;5053621;28;20239;-46
2023/09/18 14:42:31;;;;;;;8.98;6.13;;;;;;;;;;4988865;28;20233;-46
2023/09/18 14:45:01;;;;;;;8.13;5.05;;;;;;;;;;5013254;28;20222;-46
2023/09/18 14:47:29;;;;;;;7.93;5.38;;;;;;;;;;5013450;28;20587;-46
2023/09/18 14:49:58;;;;;;;12.32;5.50;;;;;;;;;;5013645;28;20229;-46
2023/09/18 14:52:25;;;;;;;7.68;5.25;;;;;;;;;;5013324;28;20556;-45
2023/09/18 14:54:53;;;;;;;8.15;4.90;;;;;;;;;;5012947;28;20232;-46
2023/09/18 14:57:20;;;;;;;7.82;5.55;;;;;;;;;;5013191;28;20217;-46
2023/09/18 14:59:48;;;;;;;7.25;5.32;;;;;;;;;;5012945;28;20244;-46